createdAt,value
2022-08-14T00:00:13.642Z,4.00
2022-08-14T00:02:42.010Z,3.45
2022-08-14T00:05:16.434Z,3.92
2022-08-14T00:07:44.429Z,3.53
2022-08-14T00:10:52.945Z,3.67
2022-08-14T00:13:07.083Z,3.83
2022-08-14T00:15:43.403Z,3.78
2022-08-14T00:18:30.203Z,3.75
2022-08-14T00:21:03.386Z,3.85
2022-08-14T00:23:31.135Z,4.10
2022-08-14T00:26:06.009Z,3.88
2022-08-14T00:28:36.738Z,3.92
2022-08-14T00:31:05.843Z,3.88
2022-08-14T00:33:50.585Z,4.40
2022-08-14T00:36:35.039Z,4.03
2022-08-14T00:39:12.802Z,4.03
2022-08-14T00:41:40.284Z,3.80
2022-08-14T00:44:10.384Z,4.35
2022-08-14T00:46:38.504Z,4.15
2022-08-14T00:49:08.062Z,4.15
2022-08-14T00:51:41.116Z,4.70
2022-08-14T00:54:16.844Z,3.72
2022-08-14T00:56:51.580Z,3.90
2022-08-14T00:59:23.959Z,3.67
2022-08-14T01:01:52.795Z,3.92
2022-08-14T01:04:51.966Z,4.07
2022-08-14T01:07:11.827Z,3.80
2022-08-14T01:09:42.097Z,3.53
2022-08-14T01:12:11.723Z,4.57
2022-08-14T01:14:40.821Z,4.07
2022-08-14T01:17:08.872Z,4.32
2022-08-14T01:19:54.070Z,3.90
2022-08-14T01:22:26.630Z,4.07
2022-08-14T01:24:54.850Z,3.67
2022-08-14T01:27:24.698Z,4.45
2022-08-14T01:30:01.275Z,4.47
2022-08-14T01:32:37.716Z,3.67
2022-08-14T01:35:20.189Z,4.22
2022-08-14T01:37:59.933Z,4.55
2022-08-14T01:40:36.749Z,3.78
2022-08-14T01:43:15.553Z,3.90
2022-08-14T01:48:33.452Z,4.30
2022-08-14T01:51:05.353Z,4.18
2022-08-14T01:53:55.410Z,4.13
2022-08-14T01:56:39.166Z,4.07
2022-08-14T01:59:09.741Z,3.58
2022-08-14T02:01:38.435Z,4.50
2022-08-14T02:04:20.550Z,4.70
2022-08-14T02:06:58.439Z,3.70
2022-08-14T02:09:27.883Z,3.60
2022-08-14T02:11:59.394Z,4.28
2022-08-14T02:14:31.468Z,4.15
2022-08-14T02:17:00.137Z,3.97
2022-08-14T02:19:31.716Z,3.67
2022-08-14T02:22:03.346Z,3.92
2022-08-14T02:24:39.593Z,4.00
2022-08-14T02:28:25.440Z,4.10
2022-08-14T02:29:59.750Z,4.47
2022-08-14T02:32:36.364Z,3.75
2022-08-14T02:35:10.235Z,3.90
2022-08-14T02:37:47.559Z,4.30
2022-08-14T02:40:18.369Z,4.13
2022-08-14T02:42:54.648Z,4.15
2022-08-14T02:45:24.831Z,3.75
2022-08-14T02:48:00.690Z,4.65
2022-08-14T02:50:29.368Z,4.22
2022-08-14T02:53:02.955Z,4.13
2022-08-14T02:55:33.011Z,4.05
2022-08-14T02:58:03.607Z,4.32
2022-08-14T03:00:39.736Z,4.25
2022-08-14T03:03:08.318Z,3.55
2022-08-14T03:05:41.278Z,4.05
2022-08-14T03:08:11.769Z,4.50
2022-08-14T03:10:49.025Z,4.70
2022-08-14T03:13:21.712Z,4.18
2022-08-14T03:15:56.085Z,4.47
2022-08-14T03:18:31.083Z,4.50
2022-08-14T03:21:00.376Z,3.83
2022-08-14T03:23:27.867Z,3.95
2022-08-14T03:25:56.789Z,4.22
2022-08-14T03:28:33.125Z,4.07
2022-08-14T03:31:01.878Z,4.13
2022-08-14T03:33:38.246Z,4.43
2022-08-14T03:37:37.299Z,4.07
2022-08-14T03:39:12.538Z,4.80
2022-08-14T03:41:47.766Z,3.85
2022-08-14T03:45:19.433Z,4.28
2022-08-14T03:47:03.024Z,4.10
2022-08-14T03:49:30.959Z,4.28
2022-08-14T03:52:00.699Z,3.95
2022-08-14T03:54:28.503Z,3.80
2022-08-14T03:57:02.430Z,4.25
2022-08-14T04:02:02.162Z,4.03
2022-08-14T04:04:32.140Z,3.83
2022-08-14T04:07:01.464Z,3.60
2022-08-14T04:09:29.250Z,3.83
2022-08-14T04:11:59.864Z,4.35
2022-08-14T04:14:28.985Z,3.95
2022-08-14T04:16:56.825Z,3.28
2022-08-14T04:19:24.619Z,4.10
2022-08-14T04:22:03.197Z,4.55
2022-08-14T04:24:37.943Z,4.28
2022-08-14T04:27:09.649Z,4.13
2022-08-14T04:29:38.869Z,4.10
2022-08-14T04:33:02.299Z,4.07
2022-08-14T04:34:56.070Z,4.40
2022-08-14T04:37:42.463Z,4.80
2022-08-14T04:40:28.220Z,4.07
2022-08-14T04:43:17.269Z,3.90
2022-08-14T04:45:45.643Z,4.70
2022-08-14T04:48:38.738Z,5.07
2022-08-14T04:51:10.873Z,4.25
2022-08-14T04:53:42.794Z,4.65
2022-08-14T04:56:30.517Z,4.45
2022-08-14T04:59:10.666Z,4.72
2022-08-14T05:01:41.552Z,4.50
2022-08-14T05:04:14.727Z,4.35
2022-08-14T05:06:47.195Z,5.07
2022-08-14T05:09:17.147Z,4.75
2022-08-14T05:11:45.011Z,5.07
2022-08-14T05:14:16.620Z,5.18
2022-08-14T05:17:02.586Z,4.50
2022-08-14T05:19:32.591Z,4.07
2022-08-14T05:22:16.701Z,4.75
2022-08-14T05:24:48.439Z,3.67
2022-08-14T05:27:19.688Z,5.20
2022-08-14T05:29:51.866Z,4.55
2022-08-14T05:32:19.249Z,5.60
2022-08-14T05:34:47.666Z,4.95
2022-08-14T05:37:15.641Z,4.78
2022-08-14T05:39:43.776Z,4.57
2022-08-14T05:42:22.124Z,5.18
2022-08-14T05:44:56.271Z,4.50
2022-08-14T05:47:23.848Z,4.65
2022-08-14T05:49:51.789Z,4.78
2022-08-14T05:52:38.696Z,4.90
2022-08-14T05:55:09.109Z,4.38
2022-08-14T05:57:47.043Z,4.03
2022-08-14T06:00:29.069Z,4.70
2022-08-14T06:02:58.543Z,5.55
2022-08-14T06:05:28.841Z,4.30
2022-08-14T06:07:57.363Z,5.32
2022-08-14T06:10:25.696Z,4.93
2022-08-14T06:12:57.277Z,4.50
2022-08-14T06:15:30.345Z,4.47
2022-08-14T06:17:59.835Z,4.95
2022-08-14T06:20:28.706Z,5.15
2022-08-14T06:22:57.676Z,4.55
2022-08-14T06:25:27.747Z,4.25
2022-08-14T06:27:55.682Z,5.68
2022-08-14T06:30:30.279Z,4.63
2022-08-14T06:33:15.612Z,4.63
2022-08-14T06:35:43.718Z,4.50
2022-08-14T06:38:17.335Z,4.38
2022-08-14T06:40:46.086Z,4.30
2022-08-14T06:43:15.452Z,4.03
2022-08-14T06:45:48.315Z,4.40
2022-08-14T06:48:24.478Z,4.35
2022-08-14T06:50:53.121Z,5.38
2022-08-14T06:53:21.745Z,4.45
2022-08-14T06:55:58.388Z,4.72
2022-08-14T06:58:31.497Z,4.80
2022-08-14T07:01:27.096Z,5.20
2022-08-14T07:04:23.898Z,4.50
2022-08-14T07:06:52.131Z,4.40
2022-08-14T07:09:23.574Z,4.28
2022-08-14T07:11:51.616Z,4.68
2022-08-14T07:14:19.497Z,4.32
2022-08-14T07:16:48.212Z,4.30
2022-08-14T07:19:18.035Z,4.72
2022-08-14T07:21:49.167Z,4.40
2022-08-14T07:24:26.170Z,4.50
2022-08-14T07:26:58.622Z,4.63
2022-08-14T07:29:28.936Z,4.35
2022-08-14T07:31:57.912Z,4.68
2022-08-14T07:34:31.845Z,4.80
2022-08-14T07:37:04.308Z,5.18
2022-08-14T07:39:34.579Z,3.97
2022-08-14T07:42:02.728Z,5.65
2022-08-14T07:44:35.491Z,4.47
2022-08-14T07:47:05.402Z,4.80
2022-08-14T07:49:33.694Z,5.03
2022-08-14T07:52:02.152Z,4.53
2022-08-14T07:54:31.148Z,4.25
2022-08-14T07:56:59.928Z,3.97
2022-08-14T07:59:42.544Z,4.72
2022-08-14T08:02:18.956Z,5.72
2022-08-14T08:04:50.389Z,4.75
2022-08-14T08:07:21.672Z,4.45
2022-08-14T08:09:53.250Z,4.55
2022-08-14T08:12:26.117Z,4.15
2022-08-14T08:15:02.124Z,4.78
2022-08-14T08:17:38.990Z,5.10
2022-08-14T08:20:16.785Z,4.95
2022-08-14T08:22:47.905Z,4.93
2022-08-14T08:25:17.995Z,5.18
2022-08-14T08:27:55.817Z,5.00
2022-08-14T08:30:24.749Z,4.97
2022-08-14T08:32:55.185Z,5.07
2022-08-14T08:35:25.626Z,4.65
2022-08-14T08:38:14.132Z,5.10
2022-08-14T08:40:57.428Z,4.82
2022-08-14T08:43:29.376Z,4.57
2022-08-14T08:46:00.305Z,4.57
2022-08-14T08:48:36.476Z,4.55
2022-08-14T08:51:08.109Z,4.40
2022-08-14T08:53:37.463Z,4.47
2022-08-14T08:56:05.463Z,4.50
2022-08-14T08:58:32.872Z,4.25
2022-08-14T09:01:01.694Z,4.57
2022-08-14T09:03:32.296Z,4.30
2022-08-14T09:06:03.552Z,4.63
2022-08-14T09:08:33.404Z,4.57
2022-08-14T09:11:20.996Z,4.13
2022-08-14T09:13:50.484Z,4.43
2022-08-14T09:16:21.078Z,3.83
2022-08-14T09:18:53.097Z,4.70
2022-08-14T09:21:24.430Z,4.30
2022-08-14T09:24:28.784Z,3.97
2022-08-14T09:26:42.847Z,3.85
2022-08-14T09:29:11.809Z,3.33
2022-08-14T09:31:53.423Z,4.18
2022-08-14T09:34:38.202Z,4.63
2022-08-14T09:37:35.619Z,3.10
2022-08-14T09:40:10.220Z,3.70
2022-08-14T09:42:55.903Z,3.38
2022-08-14T09:45:40.210Z,3.50
2022-08-14T09:48:30.196Z,3.60
2022-08-14T09:54:19.623Z,2.95
2022-08-14T09:56:30.456Z,3.25
2022-08-14T09:59:01.129Z,3.33
2022-08-14T10:01:37.556Z,2.60
2022-08-14T10:04:32.842Z,2.20
2022-08-14T10:07:04.182Z,2.50
2022-08-14T10:09:34.637Z,2.88
2022-08-14T10:12:04.543Z,2.70
2022-08-14T10:14:36.922Z,2.67
2022-08-14T10:17:07.129Z,2.30
2022-08-14T10:19:37.162Z,2.58
2022-08-14T10:23:13.512Z,2.50
2022-08-14T10:24:59.832Z,2.75
2022-08-14T10:27:28.864Z,2.35
2022-08-14T10:30:00.733Z,2.55
2022-08-14T10:32:40.361Z,1.95
2022-08-14T10:35:17.691Z,2.00
2022-08-14T10:37:53.482Z,2.28
2022-08-14T10:43:23.796Z,2.95
2022-08-14T10:46:21.353Z,2.63
2022-08-14T10:48:57.793Z,2.70
2022-08-14T10:51:26.346Z,2.25
2022-08-14T10:53:57.028Z,1.92
2022-08-14T10:56:33.966Z,2.97
2022-08-14T10:59:02.574Z,2.08
2022-08-14T11:01:32.433Z,2.10
2022-08-14T11:04:06.421Z,2.58
2022-08-14T11:06:34.447Z,2.55
2022-08-14T11:09:13.340Z,2.38
2022-08-14T11:11:44.622Z,2.20
2022-08-14T11:14:11.999Z,2.20
2022-08-14T11:16:41.386Z,1.60
2022-08-14T11:19:24.380Z,2.00
2022-08-14T11:21:56.334Z,1.90
2022-08-14T11:24:53.995Z,2.58
2022-08-14T11:27:20.077Z,1.92
2022-08-14T11:29:52.839Z,2.10
2022-08-14T11:32:29.185Z,1.98
2022-08-14T11:34:57.544Z,2.58
2022-08-14T11:37:33.912Z,2.17
2022-08-14T11:40:16.451Z,2.33
2022-08-14T11:43:08.153Z,2.63
2022-08-14T11:49:02.970Z,2.30
2022-08-14T11:51:13.908Z,2.22
2022-08-14T11:53:43.573Z,2.20
2022-08-14T11:56:14.652Z,2.30
2022-08-14T11:58:51.979Z,1.90
2022-08-14T12:01:28.510Z,2.15
2022-08-14T12:03:59.039Z,2.20
2022-08-14T12:06:38.615Z,2.60
2022-08-14T12:09:08.505Z,3.10
2022-08-14T12:11:47.615Z,2.67
2022-08-14T12:14:29.332Z,2.55
2022-08-14T12:17:04.074Z,2.78
2022-08-14T12:19:45.417Z,2.60
2022-08-14T12:22:13.062Z,3.00
2022-08-14T12:24:57.009Z,3.20
2022-08-14T12:27:37.872Z,3.20
2022-08-14T12:30:10.327Z,2.42
2022-08-14T12:32:41.673Z,2.90
2022-08-14T12:35:10.697Z,2.90
2022-08-14T12:37:40.108Z,2.58
2022-08-14T12:40:20.635Z,3.13
2022-08-14T12:42:53.765Z,3.00
2022-08-14T12:45:32.723Z,3.00
2022-08-14T12:48:21.161Z,2.75
2022-08-14T12:50:51.635Z,3.28
2022-08-14T12:53:20.799Z,2.75
2022-08-14T12:56:18.593Z,3.17
2022-08-14T12:58:54.430Z,2.67
2022-08-14T13:01:24.301Z,2.50
2022-08-14T13:04:07.159Z,2.53
2022-08-14T13:06:36.037Z,2.80
2022-08-14T13:09:04.852Z,2.92
2022-08-14T13:11:44.662Z,2.58
2022-08-14T13:14:17.333Z,2.60
2022-08-14T13:16:50.218Z,3.05
2022-08-14T13:19:19.858Z,2.72
2022-08-14T13:22:05.159Z,3.47
2022-08-14T13:24:39.656Z,3.05
2022-08-14T13:27:10.036Z,2.88
2022-08-14T13:29:46.644Z,3.20
2022-08-14T13:32:15.405Z,2.97
2022-08-14T13:34:45.502Z,3.38
2022-08-14T13:37:15.160Z,3.50
2022-08-14T13:39:56.455Z,2.92
2022-08-14T13:42:26.276Z,2.97
2022-08-14T13:44:56.938Z,3.17
2022-08-14T13:47:29.577Z,3.20
2022-08-14T13:50:04.620Z,2.88
2022-08-14T13:52:52.287Z,2.28
2022-08-14T13:55:23.525Z,2.30
2022-08-14T13:58:04.127Z,3.10
2022-08-14T14:00:53.008Z,2.50
2022-08-14T14:03:25.930Z,2.63
2022-08-14T14:05:58.834Z,2.78
2022-08-14T14:08:46.658Z,3.20
2022-08-14T14:11:15.918Z,2.80
2022-08-14T14:13:45.115Z,2.88
2022-08-14T14:16:26.079Z,2.47
2022-08-14T14:21:39.005Z,1.95
2022-08-14T14:24:15.116Z,2.92
2022-08-14T14:26:46.804Z,2.97
2022-08-14T14:29:14.785Z,2.72
2022-08-14T14:31:49.004Z,3.40
2022-08-14T14:34:29.719Z,2.97
2022-08-14T14:37:02.470Z,3.05
2022-08-14T14:39:31.398Z,3.00
2022-08-14T14:42:08.085Z,2.75
2022-08-14T14:44:40.636Z,3.22
2022-08-14T14:47:12.039Z,3.47
2022-08-14T14:49:51.252Z,2.63
2022-08-14T14:52:27.697Z,2.97
2022-08-14T14:54:57.316Z,2.50
2022-08-14T14:57:35.788Z,3.13
2022-08-14T15:00:06.383Z,2.55
2022-08-14T15:02:41.249Z,2.85
2022-08-14T15:05:11.176Z,2.60
2022-08-14T15:07:40.120Z,2.97
2022-08-14T15:10:28.279Z,3.03
2022-08-14T15:12:58.195Z,2.22
2022-08-14T15:15:28.063Z,3.05
2022-08-14T15:17:57.766Z,3.10
2022-08-14T15:20:29.874Z,2.58
2022-08-14T15:23:00.635Z,3.35
2022-08-14T15:25:31.657Z,2.88
2022-08-14T15:27:59.147Z,3.20
2022-08-14T15:30:32.274Z,2.95
2022-08-14T15:33:01.610Z,2.80
2022-08-14T15:35:34.299Z,2.70
2022-08-14T15:38:07.806Z,2.80
2022-08-14T15:40:37.604Z,2.90
2022-08-14T15:43:10.784Z,2.70
2022-08-14T15:45:41.710Z,2.63
2022-08-14T15:48:22.299Z,2.35
2022-08-14T15:50:51.695Z,2.92
2022-08-14T15:53:22.221Z,2.45
2022-08-14T15:55:50.132Z,3.33
2022-08-14T15:58:20.793Z,2.90
2022-08-14T16:01:06.816Z,2.47
2022-08-14T16:03:40.892Z,2.72
2022-08-14T16:06:15.490Z,3.33
2022-08-14T16:11:14.896Z,2.10
2022-08-14T16:13:45.075Z,2.42
2022-08-14T16:16:34.940Z,3.33
2022-08-14T16:19:10.451Z,2.40
2022-08-14T16:21:41.026Z,2.40
2022-08-14T16:24:31.083Z,3.13
2022-08-14T16:27:00.936Z,2.47
2022-08-14T16:29:29.954Z,2.80
2022-08-14T16:31:59.077Z,3.33
2022-08-14T16:34:45.470Z,2.65
2022-08-14T16:37:18.451Z,2.40
2022-08-14T16:39:48.701Z,2.58
2022-08-14T16:42:39.087Z,2.42
2022-08-14T16:45:04.867Z,2.97
2022-08-14T16:47:35.136Z,3.00
2022-08-14T16:50:08.936Z,2.30
2022-08-14T16:52:44.673Z,2.43
2022-08-14T16:55:22.491Z,2.92
2022-08-14T16:57:59.185Z,2.60
2022-08-14T17:00:29.159Z,2.88
2022-08-14T17:03:03.885Z,2.47
2022-08-14T17:05:37.184Z,2.20
2022-08-14T17:08:42.836Z,2.50
2022-08-14T17:11:09.902Z,2.70
2022-08-14T17:13:58.489Z,2.83
2022-08-14T17:16:26.596Z,2.80
2022-08-14T17:19:00.497Z,3.03
2022-08-14T17:21:32.661Z,3.03
2022-08-14T17:26:55.558Z,3.10
2022-08-14T17:29:29.443Z,2.45
2022-08-14T17:32:02.012Z,2.88
2022-08-14T17:34:46.267Z,2.63
2022-08-14T17:37:27.783Z,2.97
2022-08-14T17:40:15.644Z,2.70
2022-08-14T17:42:51.144Z,2.80
2022-08-14T17:45:27.042Z,3.05
2022-08-14T17:47:59.070Z,2.28
2022-08-14T17:50:59.401Z,2.90
2022-08-14T17:53:30.446Z,3.15
2022-08-14T17:56:02.381Z,2.85
2022-08-14T17:58:38.549Z,2.45
2022-08-14T18:01:14.143Z,2.70
2022-08-14T18:03:50.338Z,2.95
2022-08-14T18:06:39.059Z,2.97
2022-08-14T18:09:25.051Z,2.80
2022-08-14T18:11:55.259Z,2.47
2022-08-14T18:14:33.297Z,3.30
2022-08-14T18:17:11.464Z,2.63
2022-08-14T18:19:41.609Z,2.85
2022-08-14T18:22:23.948Z,3.13
2022-08-14T18:25:02.151Z,3.13
2022-08-14T18:27:38.394Z,3.22
2022-08-14T18:30:31.691Z,3.30
2022-08-14T18:33:00.009Z,2.67
2022-08-14T18:35:46.249Z,3.10
2022-08-14T18:38:43.055Z,3.40
2022-08-14T18:41:37.033Z,2.90
2022-08-14T18:44:10.139Z,2.85
2022-08-14T18:47:08.520Z,3.42
2022-08-14T18:50:00.929Z,2.88
2022-08-14T18:52:42.477Z,3.22
2022-08-14T18:55:53.187Z,3.47
2022-08-14T19:01:04.603Z,3.10
2022-08-14T19:03:56.096Z,3.30
2022-08-14T19:06:43.559Z,3.03
2022-08-14T19:09:51.567Z,3.20
2022-08-14T19:12:58.178Z,3.28
2022-08-14T19:15:31.308Z,3.65
2022-08-14T19:18:14.403Z,3.70
2022-08-14T19:20:49.013Z,3.50
2022-08-14T19:23:42.432Z,3.00
2022-08-14T19:26:36.509Z,3.15
2022-08-14T19:29:26.593Z,2.90
2022-08-14T19:32:39.735Z,4.00
2022-08-14T19:35:49.804Z,3.70
2022-08-14T19:38:57.233Z,3.38
2022-08-14T19:41:30.260Z,3.78
2022-08-14T19:44:10.352Z,3.80
2022-08-14T19:47:01.339Z,3.45
2022-08-14T19:50:24.397Z,3.90
2022-08-14T19:52:23.302Z,3.95
2022-08-14T19:54:51.881Z,4.07
2022-08-14T19:57:22.003Z,3.60
2022-08-14T20:00:00.221Z,3.50
2022-08-14T20:02:30.069Z,3.58
2022-08-14T20:04:59.194Z,3.30
2022-08-14T20:08:00.438Z,3.75
2022-08-14T20:11:08.412Z,3.55
2022-08-14T20:13:25.254Z,3.55
2022-08-14T20:16:02.679Z,3.15
2022-08-14T20:18:49.479Z,3.80
2022-08-14T20:21:18.292Z,3.90
2022-08-14T20:23:48.264Z,3.65
2022-08-14T20:26:30.817Z,3.97
2022-08-14T20:29:04.553Z,4.15
2022-08-14T20:31:36.481Z,3.90
2022-08-14T20:34:08.033Z,3.70
2022-08-14T20:37:01.678Z,3.70
2022-08-14T20:39:34.621Z,4.03
2022-08-14T20:42:24.860Z,4.25
2022-08-14T21:02:29.449Z,3.70
2022-08-14T21:05:01.003Z,4.13
2022-08-14T21:07:37.376Z,3.67
2022-08-14T21:10:36.714Z,4.35
2022-08-14T21:13:26.521Z,3.08
2022-08-14T21:15:57.687Z,4.03
2022-08-14T21:18:28.706Z,4.32
2022-08-14T21:20:57.779Z,4.47
2022-08-14T21:23:27.304Z,4.10
2022-08-14T21:26:00.954Z,3.75
2022-08-14T21:28:35.581Z,4.18
2022-08-14T21:31:03.714Z,4.10
2022-08-14T21:33:33.834Z,4.07
2022-08-14T21:36:07.647Z,3.80
2022-08-14T21:38:36.461Z,4.03
2022-08-14T21:41:41.377Z,3.95
2022-08-14T21:44:05.204Z,4.25
2022-08-14T21:46:47.875Z,3.80
2022-08-14T21:49:21.028Z,4.30
2022-08-14T21:51:57.150Z,3.42
2022-08-14T21:54:32.506Z,3.85
2022-08-14T21:57:56.261Z,3.80
2022-08-14T22:00:30.289Z,3.53
2022-08-14T22:03:05.138Z,4.13
2022-08-14T22:05:33.951Z,3.35
2022-08-14T22:08:04.285Z,4.20
2022-08-14T22:10:34.740Z,3.50
2022-08-14T22:13:02.501Z,3.90
2022-08-14T22:15:33.414Z,4.10
2022-08-14T22:18:04.095Z,3.45
2022-08-14T22:20:36.262Z,3.67
2022-08-14T22:23:08.478Z,3.80
2022-08-14T22:25:41.170Z,4.10
2022-08-14T22:28:11.896Z,4.10
2022-08-14T22:30:41.687Z,3.88
2022-08-14T22:33:10.129Z,4.30
2022-08-14T22:35:43.521Z,3.78
2022-08-14T22:38:34.880Z,3.97
2022-08-14T22:41:25.839Z,4.07
2022-08-14T22:43:50.953Z,4.05
2022-08-14T22:46:20.242Z,3.42
2022-08-14T22:48:49.550Z,3.95
2022-08-14T22:51:21.144Z,4.45
2022-08-14T22:53:52.495Z,4.22
2022-08-14T22:56:22.104Z,4.10
2022-08-14T22:58:57.467Z,3.63
2022-08-14T23:01:57.131Z,3.72
2022-08-14T23:04:35.229Z,3.42
2022-08-14T23:07:22.909Z,4.20
2022-08-14T23:09:56.797Z,3.65
2022-08-14T23:14:57.416Z,3.95
2022-08-14T23:17:26.441Z,3.38
2022-08-14T23:19:56.380Z,3.83
2022-08-14T23:22:26.329Z,4.07
2022-08-14T23:24:57.937Z,4.70
2022-08-14T23:27:32.131Z,4.05
2022-08-14T23:30:31.555Z,4.03
2022-08-14T23:33:02.128Z,3.78
2022-08-14T23:35:33.212Z,3.88
2022-08-14T23:38:03.332Z,4.40
2022-08-14T23:40:31.439Z,3.58
2022-08-14T23:43:04.667Z,4.00
2022-08-14T23:45:36.493Z,4.25
2022-08-14T23:48:04.999Z,3.78
2022-08-14T23:50:40.008Z,4.28
2022-08-14T23:53:28.528Z,3.70
2022-08-14T23:56:08.275Z,4.53
2022-08-14T23:58:37.022Z,4.28
